createdAt,value
2022-12-31T00:00:17.397Z,1.90
2022-12-31T00:01:20.556Z,1.98
2022-12-31T00:02:22.308Z,1.73
2022-12-31T00:03:24.005Z,2.10
2022-12-31T00:04:25.502Z,1.80
2022-12-31T00:05:26.993Z,2.40
2022-12-31T00:06:33.155Z,2.10
2022-12-31T00:08:36.338Z,1.80
2022-12-31T00:09:37.751Z,2.05
2022-12-31T00:10:43.329Z,2.00
2022-12-31T00:11:44.894Z,1.85
2022-12-31T00:12:46.331Z,1.90
2022-12-31T00:13:48.337Z,1.80
2022-12-31T00:15:51.083Z,2.47
2022-12-31T00:16:52.538Z,1.70
2022-12-31T00:17:53.945Z,1.52
2022-12-31T00:18:59.164Z,1.65
2022-12-31T00:20:00.589Z,1.95
2022-12-31T00:21:09.789Z,2.40
2022-12-31T00:22:11.209Z,1.80
2022-12-31T00:23:12.684Z,1.65
2022-12-31T00:24:14.089Z,1.85
2022-12-31T00:25:15.505Z,1.80
2022-12-31T00:26:19.335Z,1.77
2022-12-31T00:27:22.274Z,1.92
2022-12-31T00:28:23.709Z,1.80
2022-12-31T00:29:25.189Z,2.17
2022-12-31T00:30:26.605Z,1.70
2022-12-31T00:31:31.175Z,1.70
2022-12-31T00:32:32.614Z,1.45
2022-12-31T00:33:36.072Z,1.58
2022-12-31T00:34:37.517Z,2.10
2022-12-31T00:35:38.897Z,1.67
2022-12-31T00:36:42.470Z,1.85
2022-12-31T00:37:43.899Z,1.55
2022-12-31T00:38:47.103Z,2.05
2022-12-31T00:39:48.505Z,1.60
2022-12-31T00:40:49.904Z,1.77
2022-12-31T00:41:54.371Z,1.90
2022-12-31T00:42:55.765Z,1.80
2022-12-31T00:43:57.521Z,1.67
2022-12-31T00:44:58.955Z,2.05
2022-12-31T00:46:01.265Z,1.63
2022-12-31T00:47:02.677Z,1.50
2022-12-31T00:48:04.319Z,1.75
2022-12-31T00:49:06.001Z,1.80
2022-12-31T00:50:07.810Z,1.95
2022-12-31T00:51:12.140Z,1.70
2022-12-31T00:52:15.773Z,1.80
2022-12-31T00:53:17.429Z,1.40
2022-12-31T00:54:18.855Z,1.48
2022-12-31T00:55:20.245Z,1.80
2022-12-31T00:56:24.235Z,1.65
2022-12-31T00:57:25.693Z,1.67
2022-12-31T00:58:27.573Z,1.80
2022-12-31T00:59:29.037Z,1.70
2022-12-31T01:00:30.510Z,1.50
2022-12-31T01:01:38.227Z,1.60
2022-12-31T01:02:42.416Z,1.70
2022-12-31T01:03:45.073Z,1.73
2022-12-31T01:04:46.522Z,1.50
2022-12-31T01:05:47.960Z,1.65
2022-12-31T01:06:49.438Z,1.50
2022-12-31T01:07:50.847Z,1.63
2022-12-31T01:08:55.076Z,1.40
2022-12-31T01:09:56.491Z,1.50
2022-12-31T01:11:17.451Z,1.40
2022-12-31T01:12:18.880Z,1.27
2022-12-31T01:13:20.327Z,1.10
2022-12-31T01:14:21.815Z,1.70
2022-12-31T01:15:23.235Z,1.70
2022-12-31T01:16:27.289Z,1.10
2022-12-31T01:17:28.727Z,1.30
2022-12-31T01:18:30.115Z,1.45
2022-12-31T01:19:31.547Z,1.00
2022-12-31T01:20:40.706Z,1.02
2022-12-31T01:21:43.786Z,1.10
2022-12-31T01:22:45.185Z,1.10
2022-12-31T01:23:46.779Z,1.05
2022-12-31T01:24:48.207Z,1.00
2022-12-31T01:25:49.645Z,1.17
2022-12-31T01:26:51.716Z,1.13
2022-12-31T01:28:54.820Z,1.23
2022-12-31T01:29:56.261Z,1.13
2022-12-31T01:30:57.921Z,1.00
2022-12-31T01:31:59.424Z,1.00
2022-12-31T01:33:00.814Z,0.90
2022-12-31T01:34:02.967Z,1.17
2022-12-31T01:35:04.767Z,0.88
2022-12-31T01:36:10.200Z,1.20
2022-12-31T01:37:11.578Z,0.85
2022-12-31T01:38:12.976Z,0.93
2022-12-31T01:39:14.438Z,1.10
2022-12-31T01:40:15.947Z,0.80
2022-12-31T01:41:20.615Z,0.90
2022-12-31T01:42:22.032Z,0.82
2022-12-31T01:43:23.481Z,0.82
2022-12-31T01:44:24.874Z,0.82
2022-12-31T01:45:26.538Z,0.95
2022-12-31T01:46:51.421Z,0.73
2022-12-31T01:47:57.175Z,0.60
2022-12-31T01:49:03.319Z,1.02
2022-12-31T01:50:10.271Z,0.80
2022-12-31T01:51:11.706Z,0.73
2022-12-31T01:52:20.064Z,0.80
2022-12-31T01:53:22.044Z,0.85
2022-12-31T01:55:43.372Z,0.82
2022-12-31T01:56:46.656Z,0.73
2022-12-31T01:57:53.083Z,0.90
2022-12-31T01:58:56.680Z,1.02
2022-12-31T02:00:00.447Z,0.85
2022-12-31T02:01:02.585Z,1.10
2022-12-31T02:02:05.450Z,0.73
2022-12-31T02:03:07.955Z,1.02
2022-12-31T02:04:12.051Z,0.93
2022-12-31T02:05:25.495Z,0.98
2022-12-31T02:06:36.376Z,1.02
2022-12-31T02:07:40.349Z,0.90
2022-12-31T02:08:42.411Z,1.05
2022-12-31T02:09:44.479Z,0.82
2022-12-31T02:10:45.901Z,0.73
2022-12-31T02:11:47.419Z,0.85
2022-12-31T02:12:49.129Z,0.93
2022-12-31T02:13:58.212Z,1.13
2022-12-31T02:15:00.283Z,0.93
2022-12-31T02:16:13.623Z,0.98
2022-12-31T02:17:41.776Z,0.80
2022-12-31T02:18:56.514Z,0.82
2022-12-31T02:20:24.381Z,1.05
2022-12-31T02:21:44.377Z,1.02
2022-12-31T02:24:14.525Z,1.00
2022-12-31T02:25:40.989Z,1.00
2022-12-31T02:26:53.462Z,1.05
2022-12-31T02:28:31.843Z,0.98
2022-12-31T02:30:12.808Z,0.93
2022-12-31T02:31:50.077Z,1.27
2022-12-31T02:33:02.842Z,1.05
2022-12-31T02:34:31.433Z,1.13
2022-12-31T02:35:36.729Z,1.02
2022-12-31T02:36:42.308Z,1.10
2022-12-31T02:37:48.095Z,1.02
2022-12-31T02:38:50.008Z,0.98
2022-12-31T02:39:51.842Z,1.25
2022-12-31T02:40:54.570Z,1.00
2022-12-31T02:41:55.987Z,0.90
2022-12-31T02:42:57.424Z,1.00
2022-12-31T02:43:58.848Z,1.23
2022-12-31T02:45:00.286Z,1.23
2022-12-31T02:46:16.798Z,0.93
2022-12-31T02:48:01.210Z,0.80
2022-12-31T02:49:20.416Z,0.90
2022-12-31T02:50:30.753Z,1.00
2022-12-31T02:52:10.368Z,0.85
2022-12-31T02:53:34.971Z,1.02
2022-12-31T02:54:36.416Z,1.20
2022-12-31T02:56:03.179Z,0.80
2022-12-31T02:57:13.676Z,0.90
2022-12-31T02:58:45.698Z,0.85
2022-12-31T03:01:49.213Z,0.82
2022-12-31T03:02:52.714Z,0.90
2022-12-31T03:04:14.167Z,0.90
2022-12-31T03:05:19.447Z,0.90
2022-12-31T03:06:20.902Z,1.00
2022-12-31T03:07:26.341Z,0.80
2022-12-31T03:08:27.759Z,0.77
2022-12-31T03:09:29.140Z,0.82
2022-12-31T03:10:30.611Z,0.82
2022-12-31T03:11:54.930Z,0.90
2022-12-31T03:12:56.369Z,0.75
2022-12-31T03:13:57.752Z,1.02
2022-12-31T03:14:59.178Z,0.98
2022-12-31T03:16:00.624Z,0.80
2022-12-31T03:17:02.081Z,0.70
2022-12-31T03:18:16.590Z,0.70
2022-12-31T03:19:36.577Z,1.13
2022-12-31T03:22:22.064Z,0.68
2022-12-31T03:23:28.658Z,0.93
2022-12-31T03:24:48.551Z,0.80
2022-12-31T03:25:50.108Z,0.82
2022-12-31T03:26:51.509Z,1.00
2022-12-31T03:27:53.471Z,0.90
2022-12-31T03:29:56.213Z,0.75
2022-12-31T03:31:00.469Z,0.68
2022-12-31T03:32:02.091Z,0.63
2022-12-31T03:33:05.027Z,0.80
2022-12-31T03:34:06.405Z,0.73
2022-12-31T03:35:08.677Z,0.90
2022-12-31T03:36:14.782Z,0.70
2022-12-31T03:37:16.239Z,0.73
2022-12-31T03:38:18.940Z,0.68
2022-12-31T03:39:20.344Z,0.63
2022-12-31T03:40:23.245Z,0.77
2022-12-31T03:41:24.704Z,0.77
2022-12-31T03:42:26.242Z,0.80
2022-12-31T03:43:27.790Z,0.82
2022-12-31T03:44:29.202Z,0.70
2022-12-31T03:45:30.773Z,0.90
2022-12-31T03:46:32.210Z,1.02
2022-12-31T03:47:33.633Z,0.80
2022-12-31T03:48:35.538Z,0.75
2022-12-31T03:49:36.981Z,0.80
2022-12-31T03:50:38.442Z,0.60
2022-12-31T03:51:39.863Z,0.70
2022-12-31T03:52:41.372Z,0.70
2022-12-31T03:53:42.778Z,0.73
2022-12-31T03:54:44.216Z,0.82
2022-12-31T03:55:45.722Z,0.90
2022-12-31T03:56:49.558Z,0.75
2022-12-31T03:57:51.574Z,1.08
2022-12-31T03:58:52.979Z,0.60
2022-12-31T03:59:54.545Z,0.93
2022-12-31T04:00:55.996Z,0.73
2022-12-31T04:01:57.714Z,0.70
2022-12-31T04:02:59.315Z,0.57
2022-12-31T04:04:00.776Z,0.90
2022-12-31T04:05:02.240Z,0.52
2022-12-31T04:06:03.693Z,0.60
2022-12-31T04:07:10.991Z,0.82
2022-12-31T04:08:18.331Z,0.63
2022-12-31T04:09:19.895Z,0.63
2022-12-31T04:10:21.378Z,0.70
2022-12-31T04:11:22.846Z,0.63
2022-12-31T04:12:27.438Z,0.77
2022-12-31T04:13:28.860Z,0.73
2022-12-31T04:14:30.286Z,0.93
2022-12-31T04:15:32.336Z,0.80
2022-12-31T04:17:35.320Z,1.00
2022-12-31T04:18:36.776Z,0.68
2022-12-31T04:19:38.206Z,0.52
2022-12-31T04:20:39.594Z,0.63
2022-12-31T04:21:42.714Z,0.90
2022-12-31T04:22:45.831Z,0.70
2022-12-31T04:23:47.240Z,0.95
2022-12-31T04:24:48.702Z,0.73
2022-12-31T04:25:50.132Z,0.63
2022-12-31T04:26:53.642Z,0.80
2022-12-31T04:27:55.087Z,0.68
2022-12-31T04:28:56.831Z,0.63
2022-12-31T04:29:58.244Z,0.73
2022-12-31T04:31:01.730Z,0.77
2022-12-31T04:32:04.499Z,0.75
2022-12-31T04:33:05.964Z,1.17
2022-12-31T04:34:07.369Z,0.70
2022-12-31T04:35:09.568Z,0.75
2022-12-31T04:36:11.176Z,0.65
2022-12-31T04:37:12.611Z,0.88
2022-12-31T04:38:14.043Z,0.93
2022-12-31T04:39:18.192Z,0.77
2022-12-31T04:40:19.825Z,0.82
2022-12-31T04:41:21.341Z,1.05
2022-12-31T04:42:22.765Z,0.70
2022-12-31T04:43:24.219Z,0.80
2022-12-31T04:44:25.663Z,0.82
2022-12-31T04:45:27.050Z,0.90
2022-12-31T04:46:33.034Z,0.68
2022-12-31T04:47:34.574Z,0.63
2022-12-31T04:48:36.106Z,0.80
2022-12-31T04:49:37.502Z,0.82
2022-12-31T04:50:38.932Z,0.65
2022-12-31T04:51:40.492Z,0.80
2022-12-31T04:52:44.323Z,0.73
2022-12-31T04:53:46.276Z,0.93
2022-12-31T04:55:55.299Z,0.73
2022-12-31T04:56:56.766Z,0.63
2022-12-31T04:57:58.214Z,0.75
2022-12-31T04:58:59.662Z,0.65
2022-12-31T05:00:01.083Z,0.82
2022-12-31T05:01:02.690Z,0.68
2022-12-31T05:02:04.294Z,0.73
2022-12-31T05:03:06.042Z,0.65
2022-12-31T05:04:07.543Z,0.77
2022-12-31T05:05:09.361Z,0.73
2022-12-31T05:06:16.641Z,0.70
2022-12-31T05:07:18.104Z,0.63
2022-12-31T05:08:20.403Z,0.73
2022-12-31T05:09:24.027Z,0.75
2022-12-31T05:10:25.511Z,0.73
2022-12-31T05:11:26.969Z,0.65
2022-12-31T05:12:28.515Z,0.95
2022-12-31T05:13:33.294Z,0.70
2022-12-31T05:14:35.217Z,0.50
2022-12-31T05:15:36.744Z,0.88
2022-12-31T05:16:38.192Z,0.82
2022-12-31T05:17:39.800Z,0.68
2022-12-31T05:18:41.213Z,0.73
2022-12-31T05:19:42.625Z,0.68
2022-12-31T05:20:46.164Z,0.80
2022-12-31T05:22:07.626Z,0.60
2022-12-31T05:23:09.372Z,0.73
2022-12-31T05:24:10.767Z,0.50
2022-12-31T05:25:14.887Z,0.60
2022-12-31T05:26:17.075Z,0.82
2022-12-31T05:27:18.495Z,0.60
2022-12-31T05:28:22.802Z,0.88
2022-12-31T05:29:24.232Z,0.80
2022-12-31T05:30:25.748Z,0.93
2022-12-31T05:31:27.522Z,1.13
2022-12-31T05:32:29.028Z,0.93
2022-12-31T05:33:30.502Z,0.95
2022-12-31T05:34:31.920Z,0.82
2022-12-31T05:35:33.500Z,0.93
2022-12-31T05:36:34.912Z,0.80
2022-12-31T05:37:38.437Z,0.90
2022-12-31T05:38:39.991Z,1.25
2022-12-31T05:39:41.404Z,0.95
2022-12-31T05:40:45.651Z,1.23
2022-12-31T05:41:47.107Z,1.23
2022-12-31T05:42:49.981Z,1.30
2022-12-31T05:43:51.446Z,0.95
2022-12-31T05:44:52.853Z,1.42
2022-12-31T05:45:54.344Z,1.23
2022-12-31T05:46:58.760Z,1.25
2022-12-31T05:48:00.474Z,1.23
2022-12-31T05:49:01.886Z,0.88
2022-12-31T05:50:03.706Z,1.00
2022-12-31T05:51:05.284Z,1.15
2022-12-31T05:52:06.832Z,0.98
2022-12-31T05:53:08.274Z,1.00
2022-12-31T05:54:09.752Z,1.02
2022-12-31T05:55:12.099Z,1.13
2022-12-31T05:56:17.777Z,0.80
2022-12-31T05:57:19.210Z,0.95
2022-12-31T05:58:20.648Z,0.95
2022-12-31T05:59:22.170Z,0.93
2022-12-31T06:00:26.767Z,1.00
2022-12-31T06:01:28.221Z,1.02
2022-12-31T06:02:35.411Z,1.13
2022-12-31T06:03:36.917Z,1.08
2022-12-31T06:04:38.319Z,1.08
2022-12-31T06:05:41.933Z,0.95
2022-12-31T06:06:43.423Z,0.93
2022-12-31T06:07:45.446Z,1.05
2022-12-31T06:09:51.461Z,0.90
2022-12-31T06:10:52.876Z,1.02
2022-12-31T06:11:57.255Z,1.05
2022-12-31T06:12:58.684Z,1.23
2022-12-31T06:14:00.165Z,1.15
2022-12-31T06:15:01.628Z,1.02
2022-12-31T06:16:10.369Z,0.98
2022-12-31T06:17:11.875Z,1.10
2022-12-31T06:18:13.271Z,1.30
2022-12-31T06:19:14.830Z,0.80
2022-12-31T06:20:18.061Z,1.08
2022-12-31T06:21:22.880Z,1.13
2022-12-31T06:22:24.392Z,0.90
2022-12-31T06:23:25.857Z,1.00
2022-12-31T06:24:27.362Z,0.82
2022-12-31T06:25:28.782Z,0.95
2022-12-31T06:26:30.199Z,0.95
2022-12-31T06:27:31.610Z,0.85
2022-12-31T06:28:33.342Z,1.00
2022-12-31T06:29:34.806Z,1.10
2022-12-31T06:30:36.364Z,0.85
2022-12-31T06:31:37.846Z,0.95
2022-12-31T06:32:40.652Z,0.82
2022-12-31T06:33:46.863Z,0.68
2022-12-31T06:34:48.303Z,0.70
2022-12-31T06:35:55.858Z,0.50
2022-12-31T06:36:57.878Z,0.82
2022-12-31T06:39:04.121Z,0.80
2022-12-31T06:40:06.295Z,0.57
2022-12-31T06:41:13.503Z,0.63
2022-12-31T06:42:14.925Z,0.85
2022-12-31T06:43:16.437Z,0.82
2022-12-31T06:44:17.927Z,0.80
2022-12-31T06:45:19.927Z,0.52
2022-12-31T06:46:21.386Z,0.63
2022-12-31T06:47:22.860Z,0.80
2022-12-31T06:48:27.179Z,0.63
2022-12-31T06:49:28.657Z,0.55
2022-12-31T06:50:30.087Z,0.73
2022-12-31T06:51:31.597Z,0.70
2022-12-31T06:52:33.650Z,0.68
2022-12-31T06:53:35.102Z,0.68
2022-12-31T06:54:36.840Z,0.70
2022-12-31T06:55:38.681Z,0.60
2022-12-31T06:56:40.656Z,0.60
2022-12-31T06:58:44.616Z,0.68
2022-12-31T06:59:48.990Z,0.77
2022-12-31T07:01:12.856Z,0.43
2022-12-31T07:02:49.338Z,0.52
2022-12-31T07:04:14.359Z,0.63
2022-12-31T07:05:49.499Z,0.73
2022-12-31T07:07:20.161Z,0.40
2022-12-31T07:08:46.185Z,0.75
2022-12-31T07:11:20.688Z,0.73
2022-12-31T07:12:53.647Z,0.38
2022-12-31T07:14:18.403Z,0.50
2022-12-31T07:15:36.940Z,0.43
2022-12-31T07:17:17.150Z,0.52
2022-12-31T07:18:59.040Z,0.63
2022-12-31T07:20:10.880Z,0.52
2022-12-31T07:21:20.987Z,0.63
2022-12-31T07:22:22.622Z,0.75
2022-12-31T07:23:24.762Z,0.47
2022-12-31T07:24:26.677Z,0.70
2022-12-31T07:25:28.558Z,0.80
2022-12-31T07:27:18.411Z,0.73
2022-12-31T07:28:46.125Z,0.73
2022-12-31T07:29:50.415Z,0.82
2022-12-31T07:31:01.600Z,0.60
2022-12-31T07:32:30.211Z,0.63
2022-12-31T07:33:46.743Z,0.85
2022-12-31T07:34:48.115Z,0.73
2022-12-31T07:36:08.322Z,0.63
2022-12-31T07:37:37.609Z,0.60
2022-12-31T07:39:05.656Z,0.85
2022-12-31T07:40:13.672Z,0.73
2022-12-31T07:42:33.013Z,0.60
2022-12-31T07:44:00.665Z,0.93
2022-12-31T07:45:20.890Z,0.70
2022-12-31T07:46:28.544Z,0.80
2022-12-31T07:47:30.652Z,0.75
2022-12-31T07:49:34.185Z,0.95
2022-12-31T07:50:35.909Z,0.85
2022-12-31T07:51:37.964Z,0.85
2022-12-31T07:52:39.967Z,0.90
2022-12-31T07:54:42.876Z,0.90
2022-12-31T07:55:44.343Z,0.82
2022-12-31T07:56:46.768Z,0.82
2022-12-31T07:58:24.205Z,0.65
2022-12-31T07:59:52.099Z,0.90
2022-12-31T08:00:57.162Z,0.80
2022-12-31T08:02:30.816Z,0.55
2022-12-31T08:04:07.194Z,0.73
2022-12-31T08:05:26.929Z,0.52
2022-12-31T08:06:38.977Z,0.73
2022-12-31T08:07:55.666Z,0.73
2022-12-31T08:09:15.954Z,0.60
2022-12-31T08:10:43.430Z,0.77
2022-12-31T08:11:54.176Z,0.50
2022-12-31T08:13:02.202Z,0.70
2022-12-31T08:14:03.772Z,0.43
2022-12-31T08:15:14.138Z,0.70
2022-12-31T08:16:16.035Z,0.73
2022-12-31T08:18:20.165Z,0.73
2022-12-31T08:19:25.623Z,0.65
2022-12-31T08:20:29.933Z,0.65
2022-12-31T08:21:46.251Z,0.95
2022-12-31T08:23:14.852Z,0.52
2022-12-31T08:24:35.710Z,0.55
2022-12-31T08:26:23.587Z,0.77
2022-12-31T08:27:55.649Z,0.93
2022-12-31T08:29:16.674Z,0.80
2022-12-31T08:30:21.244Z,0.73
2022-12-31T08:31:27.429Z,0.73
2022-12-31T08:32:37.610Z,0.90
2022-12-31T08:34:14.501Z,0.63
2022-12-31T08:35:22.139Z,0.82
2022-12-31T08:37:01.969Z,0.63
2022-12-31T08:38:17.939Z,0.63
2022-12-31T08:39:27.698Z,0.73
2022-12-31T08:40:42.156Z,0.70
2022-12-31T08:41:45.841Z,0.73
2022-12-31T08:43:13.377Z,0.63
2022-12-31T08:44:17.547Z,0.75
2022-12-31T08:45:43.237Z,0.77
2022-12-31T08:46:51.639Z,0.73
2022-12-31T08:48:22.478Z,0.60
2022-12-31T08:49:27.401Z,0.73
2022-12-31T08:50:29.447Z,0.88
2022-12-31T08:51:31.040Z,1.15
2022-12-31T08:52:32.712Z,0.73
2022-12-31T08:53:35.007Z,0.60
2022-12-31T08:54:36.706Z,0.80
2022-12-31T08:55:38.550Z,0.73
2022-12-31T08:56:50.446Z,0.73
2022-12-31T08:58:28.292Z,0.70
2022-12-31T08:59:44.660Z,0.70
2022-12-31T09:00:49.652Z,0.80
2022-12-31T09:01:54.380Z,0.95
2022-12-31T09:03:16.846Z,0.52
2022-12-31T09:04:46.437Z,0.98
2022-12-31T09:05:58.789Z,0.93
2022-12-31T09:07:03.272Z,0.80
2022-12-31T09:08:12.870Z,0.63
2022-12-31T09:09:25.108Z,0.75
2022-12-31T09:10:32.561Z,0.47
2022-12-31T09:11:50.417Z,0.73
2022-12-31T09:13:07.735Z,0.60
2022-12-31T09:14:15.631Z,0.73
2022-12-31T09:16:54.336Z,0.80
2022-12-31T09:17:56.140Z,0.63
2022-12-31T09:18:57.658Z,0.70
2022-12-31T09:19:59.459Z,1.13
2022-12-31T09:21:01.090Z,0.57
2022-12-31T09:22:02.981Z,0.60
2022-12-31T09:24:09.851Z,0.68
2022-12-31T09:25:17.346Z,0.77
2022-12-31T09:27:05.541Z,0.63
2022-12-31T09:28:13.948Z,0.63
2022-12-31T09:29:38.790Z,0.82
2022-12-31T09:30:44.124Z,0.75
2022-12-31T09:32:08.769Z,0.77
2022-12-31T09:33:33.059Z,0.63
2022-12-31T09:34:40.359Z,1.00
2022-12-31T09:35:55.395Z,0.77
2022-12-31T09:37:06.375Z,0.82
2022-12-31T09:38:13.526Z,0.82
2022-12-31T09:39:22.046Z,0.82
2022-12-31T09:40:35.733Z,0.82
2022-12-31T09:42:05.428Z,0.82
2022-12-31T09:43:28.783Z,0.77
2022-12-31T09:45:04.354Z,0.73
2022-12-31T09:46:43.508Z,0.63
2022-12-31T09:48:16.022Z,0.93
2022-12-31T09:49:35.739Z,1.38
2022-12-31T09:50:55.382Z,0.80
2022-12-31T09:52:34.271Z,0.90
2022-12-31T09:53:41.012Z,0.75
2022-12-31T09:55:21.897Z,0.55
2022-12-31T09:56:32.547Z,0.95
2022-12-31T09:57:40.418Z,0.82
2022-12-31T09:58:57.190Z,0.93
2022-12-31T10:00:33.613Z,0.85
2022-12-31T10:01:59.282Z,0.70
2022-12-31T10:03:31.992Z,0.73
2022-12-31T10:04:56.237Z,0.60
2022-12-31T10:06:24.272Z,1.00
2022-12-31T10:07:54.996Z,0.73
2022-12-31T10:09:39.162Z,0.95
2022-12-31T10:10:55.855Z,0.77
2022-12-31T10:12:24.958Z,0.77
2022-12-31T10:13:40.739Z,0.77
2022-12-31T10:15:00.754Z,0.90
2022-12-31T10:16:14.315Z,0.93
2022-12-31T10:17:41.689Z,0.90
2022-12-31T10:19:28.135Z,0.70
2022-12-31T10:21:08.761Z,0.73
2022-12-31T10:22:28.302Z,0.90
2022-12-31T10:24:20.751Z,0.70
2022-12-31T10:25:38.486Z,0.73
2022-12-31T10:26:59.941Z,0.93
2022-12-31T10:28:12.306Z,0.70
2022-12-31T10:29:38.340Z,0.90
2022-12-31T10:31:03.316Z,0.60
2022-12-31T10:32:04.708Z,0.80
2022-12-31T10:33:21.377Z,0.75
2022-12-31T10:34:31.496Z,0.82
2022-12-31T10:35:57.197Z,0.90
2022-12-31T10:37:09.164Z,0.70
2022-12-31T10:38:46.073Z,0.95
2022-12-31T10:40:01.709Z,1.00
2022-12-31T10:41:27.152Z,0.80
2022-12-31T10:42:34.341Z,1.08
2022-12-31T10:44:17.644Z,0.75
2022-12-31T10:45:33.571Z,0.60
2022-12-31T10:47:05.878Z,0.90
2022-12-31T10:48:26.020Z,0.90
2022-12-31T10:50:14.308Z,0.73
2022-12-31T10:51:54.279Z,0.90
2022-12-31T10:53:18.149Z,0.90
2022-12-31T10:55:01.408Z,0.93
2022-12-31T10:56:24.836Z,0.80
2022-12-31T10:58:01.874Z,0.82
2022-12-31T10:59:11.259Z,0.73
2022-12-31T11:00:17.635Z,0.80
2022-12-31T11:02:09.415Z,1.00
2022-12-31T11:03:37.197Z,0.73
2022-12-31T11:05:10.429Z,0.82
2022-12-31T11:06:32.003Z,0.73
2022-12-31T11:07:54.614Z,0.70
2022-12-31T11:09:20.044Z,0.80
2022-12-31T11:10:42.853Z,0.80
2022-12-31T11:12:04.718Z,1.08
2022-12-31T11:13:08.901Z,0.80
2022-12-31T11:14:51.927Z,0.80
2022-12-31T11:16:12.513Z,0.75
2022-12-31T11:17:30.985Z,0.88
2022-12-31T11:18:56.794Z,0.90
2022-12-31T11:21:28.234Z,0.82
2022-12-31T11:23:08.140Z,0.80
2022-12-31T11:24:28.300Z,0.80
2022-12-31T11:25:43.755Z,0.70
2022-12-31T11:27:10.088Z,1.10
2022-12-31T11:28:34.980Z,0.80
2022-12-31T11:29:48.401Z,1.13
2022-12-31T11:31:12.409Z,0.73
2022-12-31T11:32:44.570Z,0.93
2022-12-31T11:34:24.706Z,0.85
2022-12-31T11:35:42.900Z,0.88
2022-12-31T11:37:18.024Z,1.00
2022-12-31T11:38:31.900Z,0.80
2022-12-31T11:41:07.838Z,1.00
2022-12-31T11:42:26.845Z,1.00
2022-12-31T11:43:35.497Z,0.90
2022-12-31T11:45:12.622Z,0.90
2022-12-31T11:47:04.832Z,0.80
2022-12-31T11:48:43.318Z,0.80
2022-12-31T11:50:10.457Z,0.95
2022-12-31T11:51:50.823Z,1.00
2022-12-31T11:53:15.423Z,1.00
2022-12-31T11:55:12.497Z,1.10
2022-12-31T11:56:34.539Z,1.02
2022-12-31T11:57:38.412Z,1.10
2022-12-31T11:58:47.649Z,1.42
2022-12-31T11:59:56.880Z,1.15
2022-12-31T12:01:47.677Z,1.65
2022-12-31T12:02:56.505Z,0.90
2022-12-31T12:03:58.148Z,1.00
2022-12-31T12:05:11.507Z,1.10
2022-12-31T12:06:18.627Z,0.90
2022-12-31T12:07:20.847Z,1.08
2022-12-31T12:08:22.741Z,1.13
2022-12-31T12:10:37.162Z,0.80
2022-12-31T12:11:39.951Z,1.45
2022-12-31T12:12:42.685Z,1.15
2022-12-31T12:13:44.356Z,1.17
2022-12-31T12:14:51.897Z,0.90
2022-12-31T12:15:58.083Z,0.70
2022-12-31T12:17:05.889Z,1.23
2022-12-31T12:18:13.954Z,1.63
2022-12-31T12:19:18.710Z,1.30
2022-12-31T12:20:35.435Z,1.02
2022-12-31T12:21:46.998Z,1.17
2022-12-31T12:22:54.740Z,1.05
2022-12-31T12:24:01.641Z,1.23
2022-12-31T12:25:07.494Z,1.10
2022-12-31T12:26:32.940Z,0.95
2022-12-31T12:27:36.040Z,0.88
2022-12-31T12:28:45.850Z,1.02
2022-12-31T12:29:50.547Z,0.93
2022-12-31T12:31:02.258Z,0.90
2022-12-31T12:32:04.071Z,0.93
2022-12-31T12:33:06.295Z,1.15
2022-12-31T12:34:27.214Z,1.15
2022-12-31T12:35:34.361Z,1.10
2022-12-31T12:36:46.803Z,1.10
2022-12-31T12:38:01.446Z,1.20
2022-12-31T12:39:05.422Z,1.13
2022-12-31T12:40:22.213Z,0.75
2022-12-31T12:41:26.340Z,0.93
2022-12-31T12:42:29.300Z,1.00
2022-12-31T12:43:35.835Z,1.02
2022-12-31T12:44:42.126Z,1.00
2022-12-31T12:45:52.088Z,1.00
2022-12-31T12:46:54.333Z,1.25
2022-12-31T12:49:00.078Z,1.05
2022-12-31T12:50:03.065Z,1.02
2022-12-31T12:51:39.582Z,0.95
2022-12-31T12:52:47.038Z,1.20
2022-12-31T12:54:20.308Z,1.13
2022-12-31T12:55:49.087Z,0.95
2022-12-31T12:57:20.509Z,0.90
2022-12-31T12:59:06.482Z,1.23
2022-12-31T13:00:18.687Z,0.90
2022-12-31T13:01:26.080Z,1.05
2022-12-31T13:02:35.786Z,1.05
2022-12-31T13:04:32.591Z,0.93
2022-12-31T13:05:28.232Z,1.15
2022-12-31T13:07:02.214Z,1.00
2022-12-31T13:08:28.319Z,1.13
2022-12-31T13:09:59.095Z,1.00
2022-12-31T13:11:17.604Z,1.00
2022-12-31T13:12:56.787Z,1.00
2022-12-31T13:14:03.549Z,1.02
2022-12-31T13:15:18.714Z,0.90
2022-12-31T13:16:30.782Z,1.15
2022-12-31T13:17:41.133Z,1.10
2022-12-31T13:19:09.397Z,1.10
2022-12-31T13:20:35.269Z,1.40
2022-12-31T13:23:01.093Z,1.50
2022-12-31T13:24:23.897Z,1.00
2022-12-31T13:25:46.939Z,1.02
2022-12-31T13:26:58.755Z,0.98
2022-12-31T13:28:06.283Z,1.00
2022-12-31T13:29:34.461Z,0.60
2022-12-31T13:31:06.301Z,1.02
2022-12-31T13:32:15.547Z,1.00
2022-12-31T13:33:24.367Z,0.98
2022-12-31T13:34:33.404Z,1.08
2022-12-31T13:35:44.639Z,0.90
2022-12-31T13:36:48.614Z,1.13
2022-12-31T13:37:56.823Z,1.00
2022-12-31T13:39:02.781Z,0.75
2022-12-31T13:40:38.085Z,0.88
2022-12-31T13:41:46.576Z,0.95
2022-12-31T13:43:12.384Z,0.80
2022-12-31T13:45:31.018Z,0.95
2022-12-31T13:46:52.902Z,0.90
2022-12-31T13:48:00.688Z,0.95
2022-12-31T13:49:14.527Z,0.93
2022-12-31T13:51:46.983Z,1.25
2022-12-31T13:52:54.351Z,0.93
2022-12-31T13:54:07.829Z,1.02
2022-12-31T13:55:27.528Z,0.93
2022-12-31T13:56:33.834Z,1.00
2022-12-31T13:57:35.756Z,1.02
2022-12-31T13:59:51.830Z,0.93
2022-12-31T14:01:00.234Z,1.02
2022-12-31T14:02:30.455Z,1.00
2022-12-31T14:03:45.609Z,1.30
2022-12-31T14:04:51.704Z,1.40
2022-12-31T14:06:06.535Z,0.82
2022-12-31T14:07:20.721Z,0.98
2022-12-31T14:08:22.260Z,1.33
2022-12-31T14:09:26.261Z,1.60
2022-12-31T14:11:08.199Z,3.00
2022-12-31T14:12:15.744Z,1.05
2022-12-31T14:13:34.178Z,1.17
2022-12-31T14:15:01.419Z,1.15
2022-12-31T14:16:08.832Z,1.10
2022-12-31T14:17:19.790Z,1.30
2022-12-31T14:18:34.612Z,1.17
2022-12-31T14:19:40.989Z,1.40
2022-12-31T14:20:49.143Z,1.13
2022-12-31T14:21:56.781Z,1.10
2022-12-31T14:23:04.305Z,1.10
2022-12-31T14:24:23.130Z,1.05
2022-12-31T14:25:57.182Z,0.93
2022-12-31T14:27:03.645Z,1.05
2022-12-31T14:28:08.207Z,1.00
2022-12-31T14:29:13.909Z,1.02
2022-12-31T14:30:19.507Z,1.17
2022-12-31T14:31:55.084Z,1.00
2022-12-31T14:33:16.132Z,1.23
2022-12-31T14:34:42.931Z,1.23
2022-12-31T14:36:14.121Z,1.20
2022-12-31T14:37:46.264Z,1.17
2022-12-31T14:38:59.824Z,1.42
2022-12-31T14:40:26.262Z,1.30
2022-12-31T14:41:38.749Z,1.38
2022-12-31T14:42:55.798Z,1.50
2022-12-31T14:44:18.949Z,1.08
2022-12-31T14:45:48.826Z,1.17
2022-12-31T14:47:17.329Z,1.52
2022-12-31T14:48:34.080Z,1.42
2022-12-31T14:50:02.209Z,2.35
2022-12-31T14:51:05.312Z,1.70
2022-12-31T14:52:15.558Z,1.20
2022-12-31T14:53:28.564Z,1.20
2022-12-31T14:54:38.006Z,1.13
2022-12-31T14:55:40.955Z,1.55
2022-12-31T14:56:45.103Z,1.23
2022-12-31T14:59:29.419Z,1.42
2022-12-31T15:00:39.190Z,1.27
2022-12-31T15:01:45.445Z,1.40
2022-12-31T15:02:56.846Z,1.40
2022-12-31T15:03:58.637Z,1.10
2022-12-31T15:05:16.023Z,1.40
2022-12-31T15:06:23.374Z,1.52
2022-12-31T15:07:52.237Z,1.25
2022-12-31T15:09:19.831Z,1.52
2022-12-31T15:10:48.715Z,1.27
2022-12-31T15:11:56.219Z,1.38
2022-12-31T15:13:19.002Z,1.40
2022-12-31T15:14:37.621Z,1.70
2022-12-31T15:15:56.769Z,1.58
2022-12-31T15:17:23.005Z,1.50
2022-12-31T15:18:31.990Z,1.83
2022-12-31T15:20:18.609Z,1.80
2022-12-31T15:21:44.930Z,1.75
2022-12-31T15:22:48.234Z,1.40
2022-12-31T15:23:49.851Z,1.60
2022-12-31T15:24:51.629Z,2.00
2022-12-31T15:25:59.310Z,1.90
2022-12-31T15:27:03.987Z,1.23
2022-12-31T15:28:31.671Z,1.45
2022-12-31T15:29:33.320Z,2.13
2022-12-31T15:30:46.109Z,2.17
2022-12-31T15:31:48.251Z,1.58
2022-12-31T15:32:49.742Z,1.50
2022-12-31T15:34:03.107Z,1.50
2022-12-31T15:35:31.597Z,1.67
2022-12-31T15:36:35.930Z,2.00
2022-12-31T15:37:37.382Z,2.60
2022-12-31T15:38:41.445Z,1.98
2022-12-31T15:39:43.478Z,1.80
2022-12-31T15:40:50.629Z,1.80
2022-12-31T15:43:40.528Z,1.63
2022-12-31T15:44:50.082Z,1.25
2022-12-31T15:45:56.580Z,1.38
2022-12-31T15:47:04.337Z,1.40
2022-12-31T15:48:14.438Z,1.42
2022-12-31T15:49:22.979Z,1.70
2022-12-31T15:50:25.781Z,1.70
2022-12-31T15:51:36.194Z,1.40
2022-12-31T15:52:55.075Z,1.42
2022-12-31T15:53:58.519Z,1.05
2022-12-31T15:55:03.873Z,1.52
2022-12-31T15:56:07.947Z,1.23
2022-12-31T15:57:17.989Z,1.10
2022-12-31T15:58:23.342Z,1.40
2022-12-31T15:59:26.900Z,2.10
2022-12-31T16:00:43.436Z,2.38
2022-12-31T16:01:46.571Z,2.00
2022-12-31T16:02:52.512Z,1.83
2022-12-31T16:04:07.104Z,1.50
2022-12-31T16:05:23.645Z,2.05
2022-12-31T16:06:29.368Z,1.73
2022-12-31T16:07:32.065Z,1.80
2022-12-31T16:08:35.400Z,1.92
2022-12-31T16:09:36.998Z,1.45
2022-12-31T16:10:38.835Z,1.75
2022-12-31T16:11:41.649Z,1.55
2022-12-31T16:12:45.430Z,2.50
2022-12-31T16:13:50.840Z,2.67
2022-12-31T16:14:56.461Z,2.13
2022-12-31T16:16:05.231Z,2.05